Time;durP1;ratioP1;P1;durP2;ratioP2;P2;SDS_P1;SDS_P2;PMS_P1;PMS_P2;Temp;Humidity;BMP_temperature;BMP_pressure;BME280_temperature;BME280_humidity;BME280_pressure;Samples;Min_cycle;Max_cycle;Signal;HPM_P1;HPM_P2
2022/07/02 00:01:52;;;;;;;11.90;6.80;;;;;;;17.53;74.55;99871.54;104111;1284;22633;-63
2022/07/02 00:04:21;;;;;;;13.80;6.50;;;;;;;17.51;74.78;99873.71;108378;1284;22456;-64
2022/07/02 00:06:47;;;;;;;9.50;6.60;;;;;;;17.51;74.69;99873.55;108227;1286;140137;-64
2022/07/02 00:09:14;;;;;;;10.10;6.10;;;;;;;17.52;74.76;99878.39;109263;1276;22453;-64
2022/07/02 00:11:41;;;;;;;9.20;6.50;;;;;;;17.51;74.91;99880.98;109348;1274;138388;-64
2022/07/02 00:14:08;;;;;;;8.00;6.00;;;;;;;17.53;74.97;99885.16;109436;1274;23129;-65
2022/07/02 00:16:35;;;;;;;12.30;6.70;;;;;;;17.52;74.93;99881.48;109502;1273;22467;-64
2022/07/02 00:19:02;;;;;;;10.90;5.90;;;;;;;17.50;75.12;99881.33;109335;1274;137886;-64
2022/07/02 00:21:29;;;;;;;12.30;6.30;;;;;;;17.47;75.25;99880.92;109477;1274;22435;-64
2022/07/02 00:23:56;;;;;;;12.30;6.40;;;;;;;17.44;75.37;99882.69;109344;1274;138294;-64
2022/07/02 00:26:32;;;;;;;8.60;5.60;;;;;;;17.44;75.59;99886.94;109424;1274;23061;-64
2022/07/02 00:29:36;;;;;;;12.90;6.30;;;;;;;17.41;75.66;99888.83;109289;1276;23774;-64
2022/07/02 00:32:05;;;;;;;10.30;5.40;;;;;;;17.41;75.68;99894.73;108710;1281;22528;-64
2022/07/02 00:34:38;;;;;;;9.40;5.70;;;;;;;17.40;75.63;99891.33;108630;1281;22466;-63
2022/07/02 00:37:09;;;;;;;8.70;5.20;;;;;;;17.39;75.62;99890.95;108478;1281;139120;-63
2022/07/02 00:39:36;;;;;;;7.50;5.90;;;;;;;17.37;75.56;99887.38;108590;1281;22517;-63
2022/07/02 00:42:04;;;;;;;6.40;5.00;;;;;;;17.36;75.40;99883.88;108571;1281;139864;-64
2022/07/02 00:44:31;;;;;;;5.60;4.40;;;;;;;17.35;75.39;99886.09;108699;1281;23390;-63
2022/07/02 00:47:03;;;;;;;6.20;4.60;;;;;;;17.32;75.17;99887.44;108680;1281;23385;-63
2022/07/02 00:49:31;;;;;;;9.30;4.40;;;;;;;17.29;75.17;99886.66;108503;1281;138071;-63
2022/07/02 00:51:57;;;;;;;6.80;4.70;;;;;;;17.31;75.11;99891.94;108568;1281;23555;-63
2022/07/02 00:54:24;;;;;;;7.50;4.20;;;;;;;17.32;74.91;99898.00;108606;1281;138596;-63
2022/07/02 00:56:52;;;;;;;5.20;4.30;;;;;;;17.36;74.73;99893.67;108686;1280;23565;-63
2022/07/02 00:59:22;;;;;;;8.40;4.50;;;;;;;17.41;74.38;99891.21;108683;1281;22651;-63
2022/07/02 01:01:49;;;;;;;5.30;4.80;;;;;;;17.45;74.25;99889.13;108560;1282;22418;-63
2022/07/02 01:04:17;;;;;;;8.70;4.40;;;;;;;17.48;74.09;99898.98;108666;1281;22452;-63
2022/07/02 01:06:44;;;;;;;8.00;4.40;;;;;;;17.50;74.08;99904.52;108628;1281;138409;-63
2022/07/02 01:12:00;;;;;;;5.40;4.10;;;;;;;17.53;73.90;99911.44;109381;1274;140083;-63
2022/07/02 01:14:27;;;;;;;5.20;3.80;;;;;;;17.52;73.73;99912.21;109455;1274;22540;-64
2022/07/02 01:16:54;;;;;;;6.70;4.00;;;;;;;17.52;73.62;99915.48;109435;1274;22382;-64
2022/07/02 01:19:23;;;;;;;7.20;3.60;;;;;;;17.50;73.64;99916.27;109338;1274;140033;-64
2022/07/02 01:22:08;;;;;;;4.50;3.90;;;;;;;17.49;73.79;99919.70;109416;1274;23290;-64
2022/07/02 01:24:35;;;;;;;6.10;3.90;;;;;;;17.48;73.67;99917.44;109313;1274;139082;-64
2022/07/02 01:27:02;;;;;;;5.00;3.60;;;;;;;17.45;73.58;99914.56;109337;1276;22492;-64
2022/07/02 01:29:29;;;;;;;10.10;4.20;;;;;;;17.43;73.61;99915.20;109191;1274;138373;-63
2022/07/02 01:31:55;;;;;;;5.40;3.80;;;;;;;17.43;73.73;99917.25;109280;1276;22469;-63
2022/07/02 01:34:22;;;;;;;5.30;3.70;;;;;;;17.44;73.58;99920.77;109429;1274;24697;-63
2022/07/02 01:36:49;;;;;;;5.10;3.80;;;;;;;17.48;73.44;99923.23;109233;1276;137892;-63
2022/07/02 01:39:23;;;;;;;11.40;5.20;;;;;;;17.54;72.95;99920.79;109250;1276;22443;-63
2022/07/02 01:41:49;;;;;;;9.00;4.10;;;;;;;17.65;72.54;99928.66;109194;1275;138629;-64
2022/07/02 01:44:16;;;;;;;11.20;4.30;;;;;;;17.75;72.23;99924.58;109341;1275;22516;-63
2022/07/02 01:46:44;;;;;;;5.70;4.60;;;;;;;17.86;71.73;99924.05;109253;1274;22556;-63
2022/07/02 01:49:11;;;;;;;5.60;3.80;;;;;;;17.97;71.41;99922.91;109296;1274;138069;-63
2022/07/02 01:51:37;;;;;;;14.90;4.40;;;;;;;18.07;71.01;99924.80;109273;1274;22553;-64
2022/07/02 01:54:04;;;;;;;5.50;4.20;;;;;;;18.16;70.80;99929.26;109216;1276;138413;-63
2022/07/02 01:56:34;;;;;;;5.40;4.20;;;;;;;18.24;70.38;99933.33;109268;1275;22450;-63
2022/07/02 01:59:01;;;;;;;7.10;4.10;;;;;;;18.32;69.87;99936.90;109335;1276;22474;-63
2022/07/02 02:01:28;;;;;;;6.60;4.10;;;;;;;18.41;69.42;99935.77;109121;1276;137904;-62
2022/07/02 02:03:55;;;;;;;6.30;4.40;;;;;;;18.49;68.75;99934.54;109332;1275;22404;-62
2022/07/02 02:06:21;;;;;;;6.10;4.20;;;;;;;18.59;68.30;99938.40;109351;1274;138853;-63
2022/07/02 02:08:48;;;;;;;5.20;4.10;;;;;;;18.65;68.17;99941.81;109258;1276;22570;-63
2022/07/02 02:11:15;;;;;;;14.30;4.50;;;;;;;18.71;67.75;99941.63;109415;1274;22505;-63
2022/07/02 02:13:42;;;;;;;9.50;3.70;;;;;;;18.77;67.39;99951.40;109173;1277;139127;-63
2022/07/02 02:16:09;;;;;;;6.00;4.40;;;;;;;18.82;66.96;99950.61;109142;1275;22448;-63
2022/07/02 02:18:35;;;;;;;6.70;4.50;;;;;;;18.85;66.55;99949.50;109119;1275;137828;-63
2022/07/02 02:21:02;;;;;;;5.90;4.00;;;;;;;18.91;66.06;99949.45;109320;1275;23096;-64
2022/07/02 02:23:29;;;;;;;5.20;3.90;;;;;;;18.95;65.83;99950.64;109218;1275;137352;-63
2022/07/02 02:25:56;;;;;;;8.80;4.80;;;;;;;18.98;65.53;99951.46;109295;1276;23818;-63
2022/07/02 02:28:23;;;;;;;5.70;3.80;;;;;;;19.01;65.27;99944.69;109290;1275;22462;-63
2022/07/02 02:30:49;;;;;;;4.30;3.30;;;;;;;19.02;65.24;99944.06;109210;1277;138131;-63
2022/07/02 02:33:16;;;;;;;8.20;4.10;;;;;;;19.03;65.26;99942.77;109387;1275;22628;-63
2022/07/02 02:35:43;;;;;;;4.20;3.80;;;;;;;19.03;65.13;99942.06;109218;1275;138747;-64
2022/07/02 02:38:10;;;;;;;7.00;4.00;;;;;;;19.03;65.09;99940.18;109290;1276;22486;-64
2022/07/02 02:40:37;;;;;;;6.30;4.10;;;;;;;19.03;64.96;99943.66;109304;1276;22543;-63
2022/07/02 02:43:03;;;;;;;7.90;3.40;;;;;;;19.03;64.95;99944.44;109146;1276;138745;-62
2022/07/02 02:45:30;;;;;;;8.60;4.50;;;;;;;19.03;65.06;99947.14;109274;1276;22473;-63
2022/07/02 02:47:57;;;;;;;9.60;5.50;;;;;;;19.03;64.64;99950.89;105791;1277;139860;-62
2022/07/02 02:50:24;;;;;;;9.10;4.60;;;;;;;19.02;64.61;99946.42;105129;1277;24325;-62
2022/07/02 02:52:50;;;;;;;5.60;5.00;;;;;;;19.04;64.55;99948.66;105132;1277;22843;-62
2022/07/02 02:55:18;;;;;;;5.50;4.00;;;;;;;19.05;64.75;99953.50;104983;1277;138885;-62
2022/07/02 02:57:45;;;;;;;10.70;6.20;;;;;;;19.04;64.34;99956.65;105074;1275;22737;-63
2022/07/02 03:00:12;;;;;;;22.30;14.60;;;;;;;19.05;64.17;99962.77;104964;1277;138621;-62
2022/07/02 03:02:39;;;;;;;13.40;7.40;;;;;;;19.06;64.38;99963.63;105108;1277;25344;-63
2022/07/02 03:05:06;;;;;;;13.20;5.40;;;;;;;19.07;64.55;99968.20;105087;1277;25082;-63
2022/07/02 03:07:33;;;;;;;5.20;4.20;;;;;;;19.10;64.39;99975.13;104902;1277;139071;-62
2022/07/02 03:10:00;;;;;;;7.50;4.00;;;;;;;19.11;64.26;99975.83;105007;1277;22576;-63
2022/07/02 03:12:27;;;;;;;9.10;4.20;;;;;;;19.12;64.19;99973.71;104947;1276;137776;-63
2022/07/02 03:14:53;;;;;;;7.20;4.10;;;;;;;19.12;64.20;99973.88;105124;1277;24312;-63
2022/07/02 03:17:20;;;;;;;6.30;4.10;;;;;;;19.13;64.11;99978.72;105150;1277;25882;-63
2022/07/02 03:19:47;;;;;;;7.50;4.20;;;;;;;19.12;64.18;99982.34;105079;1277;26583;-63
2022/07/02 03:22:14;;;;;;;4.40;3.80;;;;;;;19.11;64.19;99983.50;105112;1277;24006;-64
2022/07/02 03:24:40;;;;;;;5.00;4.40;;;;;;;19.11;64.24;99984.17;104943;1277;138204;-63
2022/07/02 03:27:08;;;;;;;8.10;4.80;;;;;;;19.11;64.40;99986.31;105048;1277;22698;-63
2022/07/02 03:29:34;;;;;;;4.90;4.20;;;;;;;19.12;64.33;99983.93;104959;1277;138751;-63
2022/07/02 03:32:01;;;;;;;7.80;4.40;;;;;;;19.12;64.51;99988.85;105054;1277;22735;-64
2022/07/02 03:34:28;;;;;;;5.30;4.70;;;;;;;19.12;64.23;99987.36;105001;1274;22568;-63
2022/07/02 03:36:55;;;;;;;7.40;4.30;;;;;;;19.11;64.45;99989.41;104985;1277;138109;-63
2022/07/02 03:39:22;;;;;;;6.20;4.10;;;;;;;19.12;64.47;99989.78;105033;1274;24258;-63
2022/07/02 03:41:49;;;;;;;7.00;4.10;;;;;;;19.16;64.71;99988.80;104965;1277;138252;-63
2022/07/02 03:44:15;;;;;;;4.90;3.80;;;;;;;19.17;64.72;99984.63;105161;1276;24325;-64
2022/07/02 03:46:42;;;;;;;6.70;4.50;;;;;;;19.20;64.56;99984.94;105204;1277;25413;-63
2022/07/02 03:49:09;;;;;;;6.20;4.60;;;;;;;19.20;64.62;99985.77;104807;1276;138180;-64
2022/07/02 03:51:36;;;;;;;13.20;5.10;;;;;;;19.20;64.61;99984.77;105122;1277;22631;-63
2022/07/02 03:54:03;;;;;;;6.60;4.50;;;;;;;19.22;64.77;99985.79;109197;1274;138606;-64
2022/07/02 03:56:30;;;;;;;12.50;5.00;;;;;;;19.23;64.59;99980.80;109325;1274;22439;-64
2022/07/02 03:58:57;;;;;;;7.30;4.30;;;;;;;19.23;64.60;99973.89;109347;1274;22556;-64
2022/07/02 04:01:24;;;;;;;6.20;4.10;;;;;;;19.26;64.78;99973.79;109150;1277;140311;-64
2022/07/02 04:03:51;;;;;;;6.10;3.60;;;;;;;19.30;64.92;99976.48;109380;1274;23118;-64
2022/07/02 04:06:18;;;;;;;8.50;4.50;;;;;;;19.35;64.91;99972.61;109179;1274;140084;-65
2022/07/02 04:08:44;;;;;;;6.30;4.50;;;;;;;19.41;64.72;99975.33;109411;1274;23264;-64
2022/07/02 04:11:11;;;;;;;8.60;4.40;;;;;;;19.46;64.44;99973.96;109307;1277;22565;-64
2022/07/02 04:13:38;;;;;;;6.30;3.70;;;;;;;19.51;64.62;99974.10;109203;1276;139979;-64
2022/07/02 04:16:05;;;;;;;6.80;4.20;;;;;;;19.55;64.30;99980.95;109327;1276;22546;-64
2022/07/02 04:18:34;;;;;;;6.40;4.10;;;;;;;19.59;64.09;99986.36;109225;1274;138196;-64
2022/07/02 04:21:02;;;;;;;6.20;3.70;;;;;;;19.64;64.03;99988.45;109348;1276;22469;-64
2022/07/02 04:23:29;;;;;;;6.70;4.40;;;;;;;19.68;64.02;99988.54;109293;1277;136107;-64
2022/07/02 04:25:56;;;;;;;9.30;4.20;;;;;;;19.73;64.03;99985.41;109599;1274;22565;-64
2022/07/02 04:28:23;;;;;;;7.60;4.30;;;;;;;19.79;63.75;99989.30;107813;1274;23025;-64
2022/07/02 04:30:50;;;;;;;5.50;3.20;;;;;;;19.82;63.43;99990.85;105004;1274;139343;-63
2022/07/02 04:33:17;;;;;;;8.20;4.30;;;;;;;19.85;63.30;99999.87;105200;1274;22576;-63
2022/07/02 04:35:44;;;;;;;9.00;4.70;;;;;;;19.88;63.05;100000.10;105084;1274;138150;-63
2022/07/02 04:38:11;;;;;;;6.40;4.00;;;;;;;19.90;63.15;100001.42;105137;1274;22783;-63
2022/07/02 04:40:38;;;;;;;5.60;4.00;;;;;;;19.94;63.24;100008.59;105134;1274;22554;-63
2022/07/02 04:43:04;;;;;;;7.70;4.50;;;;;;;19.97;63.14;100011.01;104952;1274;137891;-63
2022/07/02 04:45:31;;;;;;;8.90;4.80;;;;;;;20.01;63.11;100015.35;105079;1274;22566;-63
2022/07/02 04:47:58;;;;;;;10.30;5.20;;;;;;;20.06;62.91;100016.52;105015;1274;140213;-63
2022/07/02 04:50:25;;;;;;;6.30;4.30;;;;;;;20.10;62.92;100024.23;104903;1277;24122;-63
2022/07/02 04:52:52;;;;;;;4.80;4.00;;;;;;;20.14;62.92;100024.89;104880;1276;23175;-63
2022/07/02 04:55:18;;;;;;;6.00;3.60;;;;;;;20.18;63.11;100028.08;104996;1274;138254;-63
2022/07/02 04:57:45;;;;;;;7.50;4.20;;;;;;;20.22;63.07;100025.36;105024;1274;23247;-63
2022/07/02 05:00:13;;;;;;;6.00;4.20;;;;;;;20.30;63.12;100027.70;105019;1274;140032;-63
2022/07/02 05:02:39;;;;;;;10.80;3.70;;;;;;;20.39;63.01;100031.39;105130;1277;24146;-63
2022/07/02 05:05:07;;;;;;;5.20;4.00;;;;;;;20.49;62.48;100033.95;105105;1274;24265;-63
2022/07/02 05:07:33;;;;;;;6.00;4.20;;;;;;;20.59;62.49;100033.84;104980;1274;137742;-63
2022/07/02 05:10:00;;;;;;;6.30;4.10;;;;;;;20.67;62.00;100031.91;105114;1274;24039;-64
2022/07/02 05:12:27;;;;;;;9.00;4.30;;;;;;;20.77;62.06;100029.73;104818;1277;138880;-63
2022/07/02 05:14:54;;;;;;;5.60;3.50;;;;;;;20.92;61.08;100031.12;105082;1274;24268;-64
2022/07/02 05:17:20;;;;;;;8.50;3.50;;;;;;;21.07;60.82;100031.89;104952;1274;24233;-64
2022/07/02 05:19:47;;;;;;;7.50;3.90;;;;;;;21.27;60.42;100027.98;105155;1274;22565;-64
2022/07/02 05:22:14;;;;;;;6.00;3.80;;;;;;;21.51;59.77;100024.62;105134;1277;24215;-64
2022/07/02 05:24:41;;;;;;;7.90;3.50;;;;;;;21.81;58.61;100026.19;104991;1274;138384;-64
2022/07/02 05:27:08;;;;;;;10.20;3.80;;;;;;;22.14;57.76;100030.71;105105;1274;24154;-64
2022/07/02 05:29:35;;;;;;;4.90;3.80;;;;;;;22.47;57.48;100025.10;105000;1274;139597;-64
2022/07/02 05:32:02;;;;;;;4.90;3.30;;;;;;;22.83;55.93;100029.48;105077;1277;22694;-64
2022/07/02 05:34:29;;;;;;;4.40;3.00;;;;;;;23.19;54.74;100029.20;105084;1274;22796;-64
2022/07/02 05:36:56;;;;;;;6.30;3.00;;;;;;;23.54;53.06;100032.05;104940;1274;137533;-64
2022/07/02 05:39:22;;;;;;;9.00;3.90;;;;;;;23.86;52.19;100030.08;105067;1274;22567;-64
2022/07/02 05:41:49;;;;;;;8.00;3.50;;;;;;;24.20;52.10;100027.00;105063;1274;139331;-64
2022/07/02 05:44:16;;;;;;;5.20;4.20;;;;;;;24.60;51.52;100026.20;105048;1274;22579;-64
2022/07/02 05:46:43;;;;;;;5.70;3.60;;;;;;;24.93;50.73;100024.20;104976;1274;24420;-63
2022/07/02 05:49:10;;;;;;;5.50;4.00;;;;;;;25.17;50.03;100025.54;104919;1276;137840;-63
2022/07/02 05:51:36;;;;;;;4.80;3.90;;;;;;;25.37;49.58;100027.70;105102;1274;24298;-64
2022/07/02 05:54:03;;;;;;;6.70;4.00;;;;;;;25.53;49.14;100029.36;105044;1274;138094;-64
2022/07/02 05:56:30;;;;;;;7.10;3.20;;;;;;;25.60;47.88;100030.56;105199;1274;25443;-63
2022/07/02 05:58:57;;;;;;;8.10;3.40;;;;;;;25.53;47.87;100035.96;105001;1275;26054;-63
2022/07/02 06:01:24;;;;;;;8.00;3.80;;;;;;;25.43;48.26;100037.27;104987;1274;139056;-64
2022/07/02 06:03:51;;;;;;;6.90;3.70;;;;;;;25.32;47.91;100041.46;105084;1277;26230;-63
2022/07/02 06:09:07;;;;;;;6.40;4.00;;;;;;;24.93;47.99;100051.49;109436;1274;22427;-64
2022/07/02 06:11:34;;;;;;;7.10;4.10;;;;;;;24.78;48.63;100057.73;109328;1274;138738;-63
2022/07/02 06:14:01;;;;;;;14.60;4.40;;;;;;;24.67;48.86;100057.23;109337;1274;22450;-63
2022/07/02 06:16:29;;;;;;;6.90;4.50;;;;;;;24.58;48.92;100055.77;109223;1277;22440;-64
2022/07/02 06:18:56;;;;;;;13.30;5.40;;;;;;;24.47;49.15;100055.73;109308;1274;138412;-63
2022/07/02 06:21:23;;;;;;;6.40;3.50;;;;;;;24.36;49.60;100059.90;109445;1274;23000;-64
2022/07/02 06:23:50;;;;;;;5.80;4.20;;;;;;;24.28;49.08;100069.83;109262;1274;139776;-64
2022/07/02 06:26:16;;;;;;;6.20;3.80;;;;;;;24.18;49.08;100068.21;109467;1274;23115;-64
2022/07/02 06:28:43;;;;;;;14.40;5.40;;;;;;;24.10;49.40;100073.46;109262;1274;23137;-64
2022/07/02 06:31:10;;;;;;;8.20;3.70;;;;;;;24.03;49.53;100072.73;109116;1275;138328;-64
2022/07/02 06:33:39;;;;;;;8.80;4.40;;;;;;;23.90;49.66;100070.54;109346;1274;22635;-64
2022/07/02 06:36:07;;;;;;;4.90;3.70;;;;;;;23.81;50.51;100076.29;109287;1274;139455;-64
2022/07/02 06:38:34;;;;;;;6.30;3.10;;;;;;;23.81;50.34;100078.58;109345;1274;22411;-64
2022/07/02 06:41:01;;;;;;;9.90;4.10;;;;;;;23.80;49.95;100083.16;109400;1274;22560;-64
2022/07/02 06:43:28;;;;;;;5.70;4.10;;;;;;;23.78;49.89;100083.63;109257;1274;139544;-64
2022/07/02 06:48:40;;;;;;;6.90;3.60;;;;;;;23.64;49.98;100087.71;109199;1274;139391;-64
2022/07/02 06:51:07;;;;;;;8.90;3.40;;;;;;;23.59;50.83;100088.30;109311;1274;22503;-64
2022/07/02 06:53:33;;;;;;;6.10;3.10;;;;;;;23.58;50.96;100083.89;109338;1274;137840;-63
2022/07/02 06:56:00;;;;;;;5.20;3.50;;;;;;;23.60;50.89;100080.98;109305;1274;23241;-63
2022/07/02 06:58:27;;;;;;;9.00;3.30;;;;;;;23.64;50.48;100084.68;109434;1274;22454;-64
2022/07/02 07:00:54;;;;;;;5.10;3.70;;;;;;;23.67;50.51;100087.19;109239;1274;138203;-63
2022/07/02 07:03:20;;;;;;;8.90;4.20;;;;;;;23.69;50.42;100096.98;109344;1274;22810;-64
2022/07/02 07:05:47;;;;;;;7.80;3.60;;;;;;;23.73;50.57;100097.73;109204;1274;138338;-63
2022/07/02 07:08:14;;;;;;;9.10;3.70;;;;;;;23.77;50.12;100097.37;109286;1274;22459;-64
2022/07/02 07:10:44;;;;;;;7.60;3.40;;;;;;;23.81;50.15;100094.40;109310;1274;22422;-63
2022/07/02 07:13:11;;;;;;;5.30;2.90;;;;;;;23.82;50.03;100089.05;109374;1274;138216;-63
2022/07/02 07:15:38;;;;;;;7.10;3.20;;;;;;;23.88;49.96;100090.98;109505;1274;22464;-63
2022/07/02 07:18:05;;;;;;;7.80;3.60;;;;;;;23.95;49.96;100089.67;109118;1274;137826;-66
2022/07/02 07:20:32;;;;;;;6.70;3.60;;;;;;;24.03;49.75;100089.48;104957;1277;22579;-63
2022/07/02 07:22:59;;;;;;;7.70;3.80;;;;;;;24.11;49.36;100085.48;105183;1277;22600;-63
2022/07/02 07:25:26;;;;;;;7.30;3.60;;;;;;;24.15;49.22;100088.54;104938;1277;138264;-63
2022/07/02 07:27:54;;;;;;;6.80;3.40;;;;;;;24.19;48.98;100085.77;109270;1274;22445;-64
2022/07/02 07:30:21;;;;;;;8.50;3.10;;;;;;;24.22;48.69;100085.68;109168;1274;138880;-63
2022/07/02 07:32:48;;;;;;;9.00;3.30;;;;;;;24.26;48.57;100091.33;109279;1274;22473;-63
2022/07/02 07:35:15;;;;;;;6.20;3.50;;;;;;;24.28;47.96;100087.81;109418;1274;22612;-64
2022/07/02 07:37:41;;;;;;;7.50;3.00;;;;;;;24.25;47.27;100089.85;109155;1275;138312;-64
2022/07/02 07:40:11;;;;;;;8.70;4.00;;;;;;;24.22;47.08;100093.77;109290;1274;23316;-65
2022/07/02 07:42:38;;;;;;;7.30;2.90;;;;;;;24.18;47.77;100090.56;109294;1274;136843;-63
2022/07/02 07:45:05;;;;;;;14.10;2.70;;;;;;;24.18;47.51;100090.33;109392;1274;22578;-63
2022/07/02 07:47:32;;;;;;;5.10;3.00;;;;;;;24.20;46.85;100091.84;109300;1274;138042;-63
2022/07/02 07:49:59;;;;;;;3.50;3.20;;;;;;;24.22;47.07;100097.21;109376;1274;22585;-63
2022/07/02 07:52:25;;;;;;;7.20;3.10;;;;;;;24.24;47.00;100101.50;109290;1276;22564;-64
2022/07/02 07:54:52;;;;;;;8.20;3.40;;;;;;;24.26;46.83;100098.95;109170;1274;138506;-64
2022/07/02 07:57:19;;;;;;;4.90;2.80;;;;;;;24.30;46.08;100097.15;109262;1274;22448;-65
2022/07/02 07:59:46;;;;;;;8.00;3.00;;;;;;;24.35;45.27;100098.22;109208;1274;139225;-64
2022/07/02 08:02:13;;;;;;;11.90;3.50;;;;;;;24.38;44.55;100098.81;109342;1274;22463;-64
2022/07/02 08:04:40;;;;;;;6.90;2.70;;;;;;;24.41;44.85;100107.27;109466;1274;23134;-64
2022/07/02 08:07:07;;;;;;;4.80;3.10;;;;;;;24.43;44.19;100109.30;109284;1274;138319;-66
2022/07/02 08:09:34;;;;;;;4.20;3.00;;;;;;;24.45;44.32;100110.02;109356;1276;22316;-66
2022/07/02 08:12:01;;;;;;;7.00;3.10;;;;;;;24.44;44.46;100109.42;109277;1274;138564;-66
2022/07/02 08:14:27;;;;;;;6.30;3.30;;;;;;;24.45;45.02;100103.39;109340;1274;22436;-65
2022/07/02 08:16:54;;;;;;;8.40;3.20;;;;;;;24.47;45.60;100102.52;109428;1274;22447;-66
2022/07/02 08:19:21;;;;;;;6.60;2.70;;;;;;;24.51;45.04;100109.63;109268;1274;137828;-66
2022/07/02 08:21:47;;;;;;;5.20;2.70;;;;;;;24.57;45.01;100117.50;109286;1276;22413;-66
2022/07/02 08:24:14;;;;;;;7.80;2.80;;;;;;;24.64;44.38;100117.96;109257;1274;137490;-66
2022/07/02 08:26:41;;;;;;;5.80;3.30;;;;;;;24.70;44.46;100107.98;109456;1274;22413;-66
2022/07/02 08:29:09;;;;;;;3.70;2.30;;;;;;;24.75;43.88;100108.35;109304;1275;22421;-66
2022/07/02 08:31:35;;;;;;;4.30;2.50;;;;;;;24.81;43.57;100110.80;109239;1277;137643;-66
2022/07/02 08:34:02;;;;;;;2.80;2.30;;;;;;;24.86;43.69;100116.82;109400;1274;22419;-66
2022/07/02 08:36:29;;;;;;;2.60;2.10;;;;;;;24.91;42.90;100117.43;109324;1274;137854;-66
2022/07/02 08:38:56;;;;;;;12.60;3.20;;;;;;;24.94;42.59;100121.08;109403;1274;22556;-66
2022/07/02 08:41:22;;;;;;;7.60;2.60;;;;;;;24.95;42.58;100115.95;109289;1274;137775;-65
2022/07/02 08:43:49;;;;;;;4.40;2.50;;;;;;;24.98;42.68;100117.38;109190;1274;23348;-66
2022/07/02 08:46:16;;;;;;;4.90;3.10;;;;;;;24.98;42.65;100120.20;109384;1274;22529;-66
2022/07/02 08:48:43;;;;;;;5.80;2.70;;;;;;;24.99;42.40;100119.35;109208;1274;137695;-66
2022/07/02 08:51:10;;;;;;;7.20;2.50;;;;;;;25.01;42.43;100116.39;109326;1274;22483;-66
2022/07/02 08:53:39;;;;;;;7.50;3.10;;;;;;;25.03;42.28;100113.69;109330;1274;138562;-66
2022/07/02 08:56:07;;;;;;;10.10;3.40;;;;;;;25.06;41.78;100117.15;109451;1274;22406;-66
2022/07/02 08:58:34;;;;;;;8.20;3.10;;;;;;;25.07;42.42;100121.25;109398;1274;22470;-66
2022/07/02 09:01:01;;;;;;;5.20;3.00;;;;;;;25.07;42.86;100118.78;109204;1274;137947;-66
2022/07/02 09:03:28;;;;;;;11.50;3.30;;;;;;;25.09;43.03;100119.27;109418;1274;22464;-66
2022/07/02 09:05:55;;;;;;;6.10;3.00;;;;;;;25.12;42.94;100118.89;109251;1274;139049;-66
2022/07/02 09:08:22;;;;;;;6.60;2.80;;;;;;;25.14;42.86;100118.38;109407;1274;22607;-66
2022/07/02 09:10:51;;;;;;;4.90;2.60;;;;;;;25.15;42.48;100116.43;109342;1274;22510;-66
2022/07/02 09:13:18;;;;;;;5.20;2.90;;;;;;;25.16;42.42;100109.71;109156;1274;139754;-66
2022/07/02 09:15:45;;;;;;;7.70;2.40;;;;;;;25.18;41.97;100114.88;109332;1274;22580;-66
2022/07/02 09:18:12;;;;;;;6.10;2.80;;;;;;;25.20;41.55;100112.66;106973;1274;138494;-66
2022/07/02 09:20:39;;;;;;;5.00;2.60;;;;;;;25.25;41.25;100118.52;107360;1275;23956;-63
2022/07/02 09:23:10;;;;;;;4.80;2.50;;;;;;;25.29;40.91;100118.09;107341;1274;22376;-64
2022/07/02 09:25:37;;;;;;;7.10;3.80;;;;;;;25.28;40.60;100119.31;107107;1275;138974;-63
2022/07/02 09:28:04;;;;;;;2.80;2.50;;;;;;;25.25;41.49;100111.95;107351;1274;22903;-64
2022/07/02 09:30:33;;;;;;;5.40;3.10;;;;;;;25.28;41.43;100116.85;107249;1275;137900;-64
2022/07/02 09:35:46;;;;;;;4.00;2.80;;;;;;;25.36;40.58;100116.63;106367;1277;137809;-57
2022/07/02 09:38:13;;;;;;;8.90;3.00;;;;;;;25.40;39.93;100113.45;104016;1274;24230;-57
2022/07/02 09:40:52;;;;;;;8.20;2.60;;;;;;;25.42;40.10;100112.35;103911;1274;23881;-57
2022/07/02 09:43:31;;;;;;;5.60;2.80;;;;;;;25.44;40.37;100108.38;103722;1278;137896;-57
2022/07/02 09:45:59;;;;;;;9.10;2.80;;;;;;;25.49;40.06;100115.06;103932;1274;22771;-57
2022/07/02 09:48:26;;;;;;;4.60;2.90;;;;;;;25.53;39.88;100110.75;105008;1277;138134;-57
2022/07/02 09:50:53;;;;;;;3.90;2.60;;;;;;;25.54;40.43;100113.66;104943;1275;25451;-57
2022/07/02 09:53:20;;;;;;;6.10;2.70;;;;;;;25.54;39.89;100106.96;109166;1274;22671;-58
2022/07/02 09:55:50;;;;;;;4.30;2.70;;;;;;;25.55;40.53;100109.23;104995;1277;22558;-57
2022/07/02 09:58:25;;;;;;;7.40;3.10;;;;;;;25.59;40.05;100107.56;105029;1274;22698;-57
2022/07/02 10:00:51;;;;;;;8.40;3.00;;;;;;;25.59;39.68;100102.30;109276;1274;140327;-58
2022/07/02 10:03:18;;;;;;;2.70;2.50;;;;;;;25.62;39.37;100106.02;109369;1274;23442;-57
2022/07/02 10:05:49;;;;;;;6.00;2.80;;;;;;;25.64;39.18;100106.96;109275;1274;138021;-57
2022/07/02 10:08:15;;;;;;;3.80;2.40;;;;;;;25.65;38.50;100112.93;109398;1274;22560;-58
2022/07/02 10:10:42;;;;;;;11.20;3.20;;;;;;;25.66;38.78;100111.61;109246;1274;23402;-58
2022/07/02 10:13:10;;;;;;;3.90;3.10;;;;;;;25.67;38.61;100108.77;109270;1274;138843;-58
2022/07/02 10:15:55;;;;;;;2.90;2.60;;;;;;;25.70;38.67;100107.66;109359;1274;22429;-58
2022/07/02 10:18:23;;;;;;;4.40;2.70;;;;;;;25.74;38.37;100106.84;109315;1274;138288;-57
2022/07/02 10:20:51;;;;;;;3.30;3.00;;;;;;;25.78;38.07;100108.48;109321;1274;22453;-58
2022/07/02 10:23:18;;;;;;;9.00;2.70;;;;;;;25.80;37.85;100102.13;109340;1274;23537;-58
2022/07/02 10:25:44;;;;;;;3.60;2.60;;;;;;;25.83;37.64;100103.30;109182;1275;138977;-58
2022/07/02 10:28:11;;;;;;;4.30;2.50;;;;;;;25.83;37.08;100102.04;105601;1274;24240;-57
2022/07/02 10:30:38;;;;;;;6.00;2.90;;;;;;;25.84;36.82;100104.20;104851;1275;139052;-57
2022/07/02 10:33:23;;;;;;;3.80;3.00;;;;;;;25.82;37.61;100104.97;104826;1277;24302;-57
2022/07/02 10:35:50;;;;;;;14.50;13.00;;;;;;;25.82;37.95;100108.09;104921;1275;137762;-57
2022/07/02 10:38:30;;;;;;;5.40;3.60;;;;;;;25.83;38.84;100103.25;105059;1277;25381;-57
2022/07/02 10:40:57;;;;;;;8.40;2.80;;;;;;;25.87;39.10;100103.08;104977;1277;22632;-57
2022/07/02 10:43:26;;;;;;;6.50;2.60;;;;;;;25.91;38.02;100099.46;104860;1274;137561;-57
2022/07/02 10:46:04;;;;;;;6.60;2.40;;;;;;;25.94;37.03;100096.23;108038;1274;25161;-58
2022/07/02 10:49:00;;;;;;;3.40;2.70;;;;;;;25.95;36.21;100096.08;109278;1274;138910;-58
2022/07/02 10:51:29;;;;;;;10.30;2.70;;;;;;;25.94;37.27;100095.89;108676;1283;22529;-58
2022/07/02 10:54:00;;;;;;;5.60;2.70;;;;;;;25.94;37.41;100101.43;108553;1282;138542;-58
2022/07/02 10:56:28;;;;;;;5.30;3.00;;;;;;;25.96;37.29;100096.85;108623;1282;23454;-58
2022/07/02 10:58:54;;;;;;;11.70;3.10;;;;;;;25.97;36.76;100084.91;108685;1281;22433;-58
2022/07/02 11:01:22;;;;;;;5.00;2.80;;;;;;;25.97;36.80;100076.13;108534;1282;137926;-58
2022/07/02 11:04:02;;;;;;;7.30;2.70;;;;;;;25.99;37.35;100073.53;108658;1281;22432;-58
2022/07/02 11:06:30;;;;;;;5.10;3.10;;;;;;;26.01;37.53;100073.94;108561;1283;139267;-58
2022/07/02 11:08:58;;;;;;;7.10;2.60;;;;;;;26.03;37.50;100072.02;108608;1281;23100;-59
2022/07/02 11:11:40;;;;;;;7.20;2.90;;;;;;;26.05;36.52;100068.02;108588;1283;138352;-58
2022/07/02 11:14:10;;;;;;;3.90;3.20;;;;;;;26.08;36.25;100064.44;108702;1281;22522;-58
2022/07/02 11:16:50;;;;;;;10.60;3.10;;;;;;;26.06;36.57;100062.38;108684;1283;22484;-59
2022/07/02 11:19:27;;;;;;;24.10;13.60;;;;;;;26.08;36.59;100065.72;108564;1282;138420;-62
2022/07/02 11:21:58;;;;;;;5.40;3.00;;;;;;;26.12;36.56;100066.15;108650;1282;22482;-60
2022/07/02 11:24:27;;;;;;;5.60;2.60;;;;;;;26.15;35.65;100066.27;108509;1282;139029;-61
2022/07/02 11:26:53;;;;;;;5.90;2.40;;;;;;;26.15;35.15;100063.47;108646;1281;22613;-60
2022/07/02 11:29:20;;;;;;;6.30;2.80;;;;;;;26.12;35.65;100059.38;109285;1274;23364;-62
2022/07/02 11:31:49;;;;;;;6.60;4.00;;;;;;;26.10;35.32;100058.63;109379;1274;23069;-62